createdAt,value
2024-02-27T00:01:26.453Z,71.91
2024-02-27T00:04:02.996Z,71.90
2024-02-27T00:06:32.558Z,71.86
2024-02-27T00:09:01.739Z,71.99
2024-02-27T00:11:31.749Z,72.08
2024-02-27T00:14:06.357Z,72.10
2024-02-27T00:16:40.990Z,71.92
2024-02-27T00:19:11.009Z,71.82
2024-02-27T00:21:48.589Z,71.66
2024-02-27T00:24:20.073Z,71.88
2024-02-27T00:26:52.333Z,72.03
2024-02-27T00:29:27.201Z,71.96
2024-02-27T00:31:58.184Z,71.78
2024-02-27T00:34:30.345Z,71.70
2024-02-27T00:37:02.806Z,71.74
2024-02-27T00:39:34.836Z,72.14
2024-02-27T00:42:10.580Z,72.54
2024-02-27T00:45:01.500Z,73.21
2024-02-27T00:47:54.275Z,73.44
2024-02-27T00:50:29.304Z,73.51
2024-02-27T00:53:01.818Z,74.10
2024-02-27T00:55:34.252Z,74.32
2024-02-27T00:58:19.936Z,74.32
2024-02-27T01:00:49.310Z,74.44
2024-02-27T01:03:23.928Z,74.53
2024-02-27T01:05:53.124Z,74.58
2024-02-27T01:08:26.971Z,74.61
2024-02-27T01:10:58.013Z,74.66
2024-02-27T01:13:29.452Z,74.48
2024-02-27T01:16:08.830Z,73.99
2024-02-27T01:18:37.997Z,73.55
2024-02-27T01:21:10.165Z,73.15
2024-02-27T01:23:41.819Z,72.99
2024-02-27T01:26:13.435Z,73.15
2024-02-27T01:28:48.521Z,73.12
2024-02-27T01:31:17.512Z,73.35
2024-02-27T01:33:52.732Z,73.10
2024-02-27T01:36:24.350Z,72.94
2024-02-27T01:38:55.505Z,72.94
2024-02-27T01:41:24.529Z,73.31
2024-02-27T01:44:03.386Z,73.30
2024-02-27T01:46:34.775Z,72.82
2024-02-27T01:49:04.426Z,72.48
2024-02-27T01:51:33.492Z,72.34
2024-02-27T01:54:12.078Z,72.37
2024-02-27T01:56:46.060Z,72.38
2024-02-27T01:59:27.399Z,72.33
2024-02-27T02:02:04.491Z,72.41
2024-02-27T02:04:37.058Z,72.82
2024-02-27T02:07:09.394Z,72.77
2024-02-27T02:09:41.332Z,72.56
2024-02-27T02:12:17.010Z,72.47
2024-02-27T02:14:50.025Z,72.35
2024-02-27T02:17:21.705Z,72.49
2024-02-27T02:19:50.608Z,72.46
2024-02-27T02:22:25.237Z,72.54
2024-02-27T02:25:03.944Z,72.63
2024-02-27T02:27:39.716Z,72.61
2024-02-27T02:30:12.807Z,72.57
2024-02-27T02:32:51.511Z,72.68
2024-02-27T02:35:25.078Z,72.73
2024-02-27T02:38:05.543Z,72.80
2024-02-27T02:40:36.996Z,72.82
2024-02-27T02:43:12.317Z,72.80
2024-02-27T02:45:43.868Z,72.71
2024-02-27T02:48:18.910Z,72.86
2024-02-27T02:50:53.443Z,72.51
2024-02-27T02:53:28.405Z,72.15
2024-02-27T02:55:59.860Z,72.18
2024-02-27T02:58:31.702Z,72.30
2024-02-27T03:01:06.758Z,71.88
2024-02-27T03:03:35.586Z,71.63
2024-02-27T03:06:17.593Z,71.67
2024-02-27T03:08:49.683Z,71.88
2024-02-27T03:11:24.703Z,72.27
2024-02-27T03:13:56.468Z,72.79
2024-02-27T03:16:28.739Z,72.87
2024-02-27T03:19:00.343Z,73.24
2024-02-27T03:21:36.004Z,73.83
2024-02-27T03:24:11.168Z,74.35
2024-02-27T03:26:42.635Z,74.85
2024-02-27T03:29:22.905Z,75.28
2024-02-27T03:31:55.261Z,75.37
2024-02-27T03:34:27.551Z,74.99
2024-02-27T03:36:59.607Z,74.56
2024-02-27T03:39:31.644Z,74.49
2024-02-27T03:42:03.479Z,74.54
2024-02-27T03:44:32.942Z,74.75
2024-02-27T03:47:04.446Z,74.66
2024-02-27T03:49:38.226Z,74.91
2024-02-27T03:52:07.379Z,74.97
2024-02-27T03:54:43.037Z,75.00
2024-02-27T03:57:12.201Z,74.84
2024-02-27T03:59:41.145Z,74.75
2024-02-27T04:02:12.905Z,74.71
2024-02-27T04:04:45.455Z,74.36
2024-02-27T04:07:34.639Z,74.19
2024-02-27T04:10:15.585Z,74.42
2024-02-27T04:12:47.438Z,74.52
2024-02-27T04:15:36.270Z,74.72
2024-02-27T04:18:09.129Z,74.72
2024-02-27T04:20:38.102Z,74.85
2024-02-27T04:23:09.745Z,74.84
2024-02-27T04:25:41.717Z,74.51
2024-02-27T04:28:10.496Z,74.48
2024-02-27T04:30:39.741Z,74.25
2024-02-27T04:33:08.908Z,74.48
2024-02-27T04:35:50.165Z,74.49
2024-02-27T04:38:19.044Z,74.43
2024-02-27T04:40:48.215Z,74.49
2024-02-27T04:43:25.103Z,74.52
2024-02-27T04:45:54.019Z,74.32
2024-02-27T04:48:28.121Z,74.21
2024-02-27T04:50:57.002Z,73.80
2024-02-27T04:53:26.105Z,73.34
2024-02-27T04:55:57.884Z,73.35
2024-02-27T04:58:29.004Z,73.40
2024-02-27T05:01:00.361Z,73.52
2024-02-27T05:03:51.018Z,73.81
2024-02-27T05:06:20.463Z,74.02
2024-02-27T05:08:55.602Z,74.18
2024-02-27T05:11:24.331Z,74.47
2024-02-27T05:13:56.252Z,74.24
2024-02-27T05:16:28.115Z,73.41
2024-02-27T05:18:57.014Z,73.07
2024-02-27T05:21:29.676Z,73.19
2024-02-27T05:24:01.538Z,73.41
2024-02-27T05:26:30.521Z,73.65
2024-02-27T05:29:03.116Z,73.61
2024-02-27T05:31:35.689Z,73.56
2024-02-27T05:34:09.035Z,73.68
2024-02-27T05:36:38.172Z,73.90
2024-02-27T05:39:07.333Z,73.93
2024-02-27T05:41:42.692Z,74.11
2024-02-27T05:44:22.044Z,73.93
2024-02-27T05:46:50.757Z,74.03
2024-02-27T05:49:20.106Z,74.30
2024-02-27T05:51:52.116Z,74.45
2024-02-27T05:54:21.736Z,73.98
2024-02-27T05:56:50.403Z,73.64
2024-02-27T05:59:22.160Z,73.66
2024-02-27T06:01:53.407Z,73.67
2024-02-27T06:04:22.250Z,73.81
2024-02-27T06:06:54.373Z,73.82
2024-02-27T06:09:30.284Z,73.48
2024-02-27T06:11:59.758Z,73.40
2024-02-27T06:14:39.995Z,73.88
2024-02-27T06:17:09.974Z,74.02
2024-02-27T06:19:46.902Z,74.45
2024-02-27T06:22:18.652Z,74.88
2024-02-27T06:24:59.920Z,75.07
2024-02-27T06:27:33.044Z,75.57
2024-02-27T06:30:12.399Z,75.90
2024-02-27T06:32:49.224Z,76.27
2024-02-27T06:35:22.677Z,76.47
2024-02-27T06:38:06.093Z,76.58
2024-02-27T06:40:45.069Z,76.63
2024-02-27T06:43:23.852Z,76.87
2024-02-27T06:45:58.321Z,76.06
2024-02-27T06:48:37.984Z,76.30
2024-02-27T06:51:11.521Z,76.43
2024-02-27T06:53:43.435Z,76.69
2024-02-27T06:56:13.555Z,76.80
2024-02-27T06:58:46.457Z,76.85
2024-02-27T07:01:27.763Z,77.07
2024-02-27T07:04:00.207Z,77.37
2024-02-27T07:06:32.555Z,77.24
2024-02-27T07:09:02.198Z,77.52
2024-02-27T07:11:33.323Z,77.50
2024-02-27T07:14:03.220Z,77.72
2024-02-27T07:16:32.433Z,77.95
2024-02-27T07:19:02.400Z,78.07
2024-02-27T07:21:43.955Z,78.13
2024-02-27T07:24:13.513Z,78.53
2024-02-27T07:26:54.318Z,78.88
2024-02-27T07:29:23.299Z,78.65
2024-02-27T07:31:55.273Z,78.76
2024-02-27T07:34:32.999Z,79.05
2024-02-27T07:37:08.066Z,78.91
2024-02-27T07:39:40.057Z,78.85
2024-02-27T07:42:09.679Z,79.11
2024-02-27T07:44:47.691Z,79.64
2024-02-27T07:47:19.539Z,79.55
2024-02-27T07:49:51.417Z,79.87
2024-02-27T07:52:22.063Z,80.13
2024-02-27T07:54:54.079Z,80.19
2024-02-27T07:57:26.782Z,80.34
2024-02-27T08:00:01.712Z,80.47
2024-02-27T08:02:40.136Z,80.60
2024-02-27T08:05:10.348Z,80.58
2024-02-27T08:07:46.502Z,80.51
2024-02-27T08:10:18.398Z,80.30
2024-02-27T08:12:49.840Z,80.25
2024-02-27T08:15:19.611Z,80.29
2024-02-27T08:17:51.918Z,80.41
2024-02-27T08:20:21.802Z,80.69
2024-02-27T08:22:52.376Z,80.54
2024-02-27T08:25:34.544Z,80.99
2024-02-27T08:28:15.914Z,81.12
2024-02-27T08:30:48.255Z,81.20
2024-02-27T08:33:21.103Z,81.34
2024-02-27T08:35:57.411Z,81.67
2024-02-27T08:38:32.796Z,81.71
2024-02-27T08:41:05.441Z,81.72
2024-02-27T08:43:37.648Z,81.71
2024-02-27T08:46:18.098Z,81.84
2024-02-27T08:48:55.961Z,81.97
2024-02-27T08:51:25.169Z,82.12
2024-02-27T08:53:54.911Z,82.08
2024-02-27T08:56:26.671Z,82.06
2024-02-27T08:58:59.143Z,81.86
2024-02-27T09:01:31.537Z,81.87
2024-02-27T09:04:02.414Z,81.67
2024-02-27T09:06:32.285Z,81.45
2024-02-27T09:09:13.911Z,81.12
2024-02-27T09:11:49.161Z,81.31
2024-02-27T09:14:27.377Z,81.59
2024-02-27T09:16:57.122Z,81.63
2024-02-27T09:19:30.174Z,81.78
2024-02-27T09:22:02.004Z,81.83
2024-02-27T09:24:38.766Z,81.73
2024-02-27T09:27:11.184Z,81.83
2024-02-27T09:29:56.582Z,82.00
2024-02-27T09:32:29.070Z,81.99
2024-02-27T09:35:00.924Z,81.80
2024-02-27T09:37:33.285Z,81.74
2024-02-27T09:40:05.781Z,82.05
2024-02-27T09:42:36.831Z,82.18
2024-02-27T09:45:12.911Z,82.41
2024-02-27T09:47:47.803Z,82.70
2024-02-27T09:50:20.957Z,82.48
2024-02-27T09:52:55.408Z,82.49
2024-02-27T09:55:29.434Z,82.69
2024-02-27T09:58:05.252Z,82.84
2024-02-27T10:00:35.117Z,83.12
2024-02-27T10:03:05.701Z,83.30
2024-02-27T10:05:39.891Z,83.19
2024-02-27T10:08:24.339Z,83.12
2024-02-27T10:10:59.780Z,83.14
2024-02-27T10:13:36.093Z,82.94
2024-02-27T10:16:11.503Z,83.05
2024-02-27T10:18:43.033Z,83.01
2024-02-27T10:21:12.210Z,83.27
2024-02-27T10:23:40.992Z,83.65
2024-02-27T10:26:13.884Z,83.79
2024-02-27T10:28:45.412Z,83.60
2024-02-27T10:31:17.212Z,83.15
2024-02-27T10:33:47.450Z,83.00
2024-02-27T10:36:19.497Z,82.88
2024-02-27T10:38:48.453Z,83.21
2024-02-27T10:41:17.153Z,83.36
2024-02-27T10:43:45.945Z,83.95
2024-02-27T10:46:17.873Z,83.71
2024-02-27T10:48:47.151Z,83.43
2024-02-27T10:51:16.576Z,82.46
2024-02-27T10:53:49.782Z,82.38
2024-02-27T10:56:19.597Z,82.56
2024-02-27T10:58:50.326Z,82.26
2024-02-27T11:01:22.508Z,82.23
2024-02-27T11:03:55.132Z,81.65
2024-02-27T11:06:27.386Z,81.67
2024-02-27T11:09:11.489Z,81.65
2024-02-27T11:11:44.168Z,81.46
2024-02-27T11:14:16.561Z,81.80
2024-02-27T11:16:51.468Z,82.11
2024-02-27T11:19:26.171Z,82.71
2024-02-27T11:21:55.957Z,82.96
2024-02-27T11:24:24.739Z,82.62
2024-02-27T11:26:54.444Z,82.19
2024-02-27T11:29:23.613Z,82.18
2024-02-27T11:31:53.378Z,82.07
2024-02-27T11:34:32.739Z,81.95
2024-02-27T11:37:14.689Z,81.52
2024-02-27T11:39:47.915Z,81.89
2024-02-27T11:42:44.499Z,81.89
2024-02-27T11:45:15.813Z,81.20
2024-02-27T11:47:53.668Z,81.12
2024-02-27T11:50:41.489Z,80.37
2024-02-27T11:53:23.206Z,80.33
2024-02-27T11:55:59.649Z,79.65
2024-02-27T11:58:31.521Z,79.47
2024-02-27T12:01:07.142Z,79.24
2024-02-27T12:03:42.503Z,79.79
2024-02-27T12:06:14.412Z,79.73
2024-02-27T12:08:54.312Z,79.63
2024-02-27T12:11:25.544Z,79.99
2024-02-27T12:13:54.432Z,80.00
2024-02-27T12:16:27.881Z,80.07
2024-02-27T12:19:02.957Z,80.46
2024-02-27T12:21:38.419Z,80.59
2024-02-27T12:24:18.906Z,80.82
2024-02-27T12:26:51.269Z,80.69
2024-02-27T12:29:20.658Z,80.39
2024-02-27T12:31:52.727Z,80.18
2024-02-27T12:34:30.799Z,80.25
2024-02-27T12:37:05.878Z,80.19
2024-02-27T12:39:38.880Z,79.35
2024-02-27T12:42:09.081Z,79.28
2024-02-27T12:44:41.323Z,79.34
2024-02-27T12:47:17.102Z,79.93
2024-02-27T12:49:49.021Z,80.17
2024-02-27T12:52:21.501Z,79.89
2024-02-27T12:54:50.809Z,79.90
2024-02-27T12:57:20.612Z,79.88
2024-02-27T12:59:51.442Z,79.89
2024-02-27T13:02:28.443Z,80.12
2024-02-27T13:05:00.295Z,80.44
2024-02-27T13:07:41.506Z,80.37
2024-02-27T13:10:12.440Z,80.37
2024-02-27T13:12:41.071Z,80.01
2024-02-27T13:15:16.213Z,79.88
2024-02-27T13:17:48.017Z,79.58
2024-02-27T13:20:26.855Z,79.55
2024-02-27T13:23:00.452Z,79.37
2024-02-27T13:25:36.668Z,79.23
2024-02-27T13:28:06.520Z,79.23
2024-02-27T13:30:43.401Z,79.34
2024-02-27T13:33:13.758Z,79.09
2024-02-27T13:35:55.451Z,79.38
2024-02-27T13:38:25.247Z,79.61
2024-02-27T13:40:55.789Z,79.48
2024-02-27T13:43:25.092Z,78.98
2024-02-27T13:45:59.828Z,79.12
2024-02-27T13:48:31.554Z,79.55
2024-02-27T13:51:04.499Z,79.84
2024-02-27T13:53:38.844Z,79.57
2024-02-27T13:56:09.258Z,79.76
2024-02-27T13:58:38.487Z,79.75
2024-02-27T14:01:09.504Z,79.65
2024-02-27T14:03:40.804Z,79.68
2024-02-27T14:06:10.312Z,79.65
2024-02-27T14:08:40.915Z,79.77
2024-02-27T14:11:10.342Z,79.98
2024-02-27T14:13:41.752Z,80.22
2024-02-27T14:16:11.975Z,80.49
2024-02-27T14:18:41.286Z,80.84
2024-02-27T14:21:10.701Z,80.89
2024-02-27T14:23:39.974Z,81.31
2024-02-27T14:26:09.382Z,81.62
2024-02-27T14:28:38.681Z,81.34
2024-02-27T14:31:08.080Z,81.25
2024-02-27T14:33:37.149Z,81.53
2024-02-27T14:36:06.663Z,81.83
2024-02-27T14:38:40.663Z,82.03
2024-02-27T14:41:09.987Z,82.25
2024-02-27T14:43:39.930Z,82.70
2024-02-27T14:46:09.540Z,82.80
2024-02-27T14:48:39.217Z,82.45
2024-02-27T14:51:10.019Z,82.44
2024-02-27T14:53:39.470Z,82.21
2024-02-27T14:56:09.190Z,82.25
2024-02-27T14:58:38.885Z,82.15
2024-02-27T15:01:13.335Z,82.00
2024-02-27T15:03:45.986Z,81.97
2024-02-27T15:06:17.499Z,81.88
2024-02-27T15:08:48.700Z,81.55
2024-02-27T15:11:23.558Z,81.35
2024-02-27T15:13:52.909Z,81.44
2024-02-27T15:16:33.472Z,81.13
2024-02-27T15:19:05.194Z,81.10
2024-02-27T15:21:37.548Z,80.91
2024-02-27T15:24:13.934Z,80.75
2024-02-27T15:26:42.793Z,80.42
2024-02-27T15:29:13.010Z,80.34
2024-02-27T15:31:44.880Z,80.32
2024-02-27T15:34:21.967Z,80.30
2024-02-27T15:36:54.660Z,80.22
2024-02-27T15:39:30.467Z,79.85
2024-02-27T15:41:59.611Z,79.65
2024-02-27T15:44:29.542Z,79.81
2024-02-27T15:46:59.643Z,79.08
2024-02-27T15:49:29.084Z,79.12
2024-02-27T15:51:58.344Z,79.22
2024-02-27T15:54:27.621Z,78.89
2024-02-27T15:56:57.493Z,78.86
2024-02-27T15:59:28.006Z,78.73
2024-02-27T16:02:01.855Z,78.63
2024-02-27T16:04:55.179Z,78.94
2024-02-27T16:07:35.187Z,79.10
2024-02-27T16:10:05.499Z,79.18
2024-02-27T16:12:36.914Z,79.28
2024-02-27T16:15:08.976Z,79.28
2024-02-27T16:17:38.109Z,79.56
2024-02-27T16:20:09.282Z,79.49
2024-02-27T16:22:41.722Z,79.47
2024-02-27T16:25:10.622Z,79.28
2024-02-27T16:27:43.125Z,78.87
2024-02-27T16:30:12.970Z,78.96
2024-02-27T16:32:46.951Z,78.99
2024-02-27T16:35:18.277Z,79.05
2024-02-27T16:37:50.227Z,79.15
2024-02-27T16:40:18.994Z,78.94
2024-02-27T16:42:48.981Z,78.92
2024-02-27T16:45:20.572Z,78.78
2024-02-27T16:47:55.605Z,78.79
2024-02-27T16:50:27.674Z,78.88
2024-02-27T16:53:00.559Z,78.90
2024-02-27T16:55:29.794Z,78.87
2024-02-27T16:58:00.634Z,78.65
2024-02-27T17:00:30.247Z,78.51
2024-02-27T17:03:04.272Z,78.80
2024-02-27T17:05:34.197Z,78.74
2024-02-27T17:08:03.006Z,78.75
2024-02-27T17:10:32.417Z,78.99
2024-02-27T17:13:03.992Z,79.03
2024-02-27T17:15:33.227Z,78.98
2024-02-27T17:18:02.117Z,78.96
2024-02-27T17:20:31.058Z,79.16
2024-02-27T17:23:01.448Z,79.07
2024-02-27T17:25:30.814Z,79.12
2024-02-27T17:28:00.320Z,79.08
2024-02-27T17:30:28.883Z,79.21
2024-02-27T17:32:57.943Z,78.99
2024-02-27T17:35:27.166Z,78.95
2024-02-27T17:37:56.170Z,79.03
2024-02-27T17:40:24.943Z,79.06
2024-02-27T17:42:53.983Z,79.21
2024-02-27T17:45:23.766Z,79.22
2024-02-27T17:47:52.703Z,79.42
2024-02-27T17:50:21.948Z,79.46
2024-02-27T17:52:50.830Z,79.63
2024-02-27T17:55:19.517Z,79.80
2024-02-27T17:57:51.706Z,79.82
2024-02-27T18:00:20.999Z,79.79
2024-02-27T18:02:49.769Z,79.88
2024-02-27T18:05:20.114Z,79.88
2024-02-27T18:07:51.650Z,80.09
2024-02-27T18:10:21.170Z,80.13
2024-02-27T18:12:49.916Z,80.25
2024-02-27T18:15:21.930Z,80.33
2024-02-27T18:17:51.076Z,80.20
2024-02-27T18:20:20.085Z,80.20
2024-02-27T18:22:49.340Z,80.09
2024-02-27T18:25:18.305Z,80.08
2024-02-27T18:27:47.576Z,80.10
2024-02-27T18:30:20.543Z,80.23
2024-02-27T18:32:50.751Z,80.35
2024-02-27T18:35:20.042Z,80.14
2024-02-27T18:37:49.490Z,79.98
2024-02-27T18:40:22.491Z,79.88
2024-02-27T18:42:52.723Z,79.79
2024-02-27T18:45:48.094Z,79.56
2024-02-27T18:48:18.514Z,79.40
2024-02-27T18:50:49.101Z,79.18
2024-02-27T18:53:18.610Z,78.99
2024-02-27T18:55:49.235Z,79.00
2024-02-27T18:58:18.672Z,78.75
2024-02-27T19:00:48.967Z,78.63
2024-02-27T19:03:18.958Z,78.59
2024-02-27T19:05:48.274Z,78.60
2024-02-27T19:08:17.901Z,78.56
2024-02-27T19:10:48.977Z,78.60
2024-02-27T19:13:24.474Z,78.55
2024-02-27T19:16:04.842Z,78.62
2024-02-27T19:18:38.828Z,78.54
2024-02-27T19:21:09.939Z,78.23
2024-02-27T19:23:43.152Z,78.29
2024-02-27T19:26:17.612Z,78.21
2024-02-27T19:28:54.430Z,78.10
2024-02-27T19:31:26.932Z,77.91
2024-02-27T19:33:59.637Z,77.97
2024-02-27T19:36:41.056Z,78.09
2024-02-27T19:39:16.115Z,78.08
2024-02-27T19:41:57.586Z,78.00
2024-02-27T19:44:34.732Z,78.29
2024-02-27T19:47:07.856Z,78.44
2024-02-27T19:49:43.657Z,78.50
2024-02-27T19:52:15.953Z,78.64
2024-02-27T19:54:48.722Z,78.42
2024-02-27T19:57:23.676Z,78.48
2024-02-27T19:59:53.855Z,78.29
2024-02-27T20:02:23.188Z,77.90
2024-02-27T20:04:56.027Z,77.98
2024-02-27T20:07:26.150Z,78.05
2024-02-27T20:09:55.764Z,78.33
2024-02-27T20:12:26.000Z,78.45
2024-02-27T20:14:56.650Z,78.60
2024-02-27T20:17:29.298Z,78.87
2024-02-27T20:19:59.193Z,78.92
2024-02-27T20:22:30.345Z,78.82
2024-02-27T20:24:59.566Z,78.73
2024-02-27T20:27:29.568Z,79.08
2024-02-27T20:30:00.502Z,79.13
2024-02-27T20:32:30.122Z,78.93
2024-02-27T20:35:02.475Z,78.70
2024-02-27T20:37:32.214Z,78.76
2024-02-27T20:40:02.801Z,78.69
2024-02-27T20:42:35.099Z,78.52
2024-02-27T20:45:09.316Z,78.53
2024-02-27T20:47:39.575Z,78.43
2024-02-27T20:50:13.012Z,78.10
2024-02-27T20:52:43.362Z,78.19
2024-02-27T20:55:12.680Z,78.21
2024-02-27T20:57:42.260Z,78.13
2024-02-27T21:00:13.246Z,77.85
2024-02-27T21:02:43.061Z,77.83
2024-02-27T21:05:12.867Z,77.93
2024-02-27T21:07:42.355Z,77.87
2024-02-27T21:10:15.759Z,77.86
2024-02-27T21:12:48.083Z,77.70
2024-02-27T21:15:17.593Z,77.49
2024-02-27T21:17:47.606Z,77.61
2024-02-27T21:20:16.449Z,77.66
2024-02-27T21:22:46.025Z,77.35
2024-02-27T21:25:15.965Z,77.26
2024-02-27T21:27:49.997Z,77.19
2024-02-27T21:30:19.723Z,77.05
2024-02-27T21:32:49.118Z,77.03
2024-02-27T21:35:18.491Z,77.02
2024-02-27T21:37:50.184Z,77.06
2024-02-27T21:40:19.231Z,77.05
2024-02-27T21:42:48.176Z,77.46
2024-02-27T21:45:18.156Z,77.57
2024-02-27T21:47:46.961Z,77.60
2024-02-27T21:50:16.544Z,77.43
2024-02-27T21:52:45.349Z,77.32
2024-02-27T21:55:14.845Z,77.07
2024-02-27T21:57:44.712Z,77.26
2024-02-27T22:00:15.200Z,77.29
2024-02-27T22:02:44.378Z,77.05
2024-02-27T22:05:13.382Z,76.95
2024-02-27T22:07:42.568Z,77.35
2024-02-27T22:10:11.668Z,77.14
2024-02-27T22:12:40.423Z,77.02
2024-02-27T22:15:09.810Z,77.31
2024-02-27T22:17:39.187Z,77.67
2024-02-27T22:20:08.545Z,77.66
2024-02-27T22:22:37.963Z,77.78
2024-02-27T22:25:07.535Z,77.99
2024-02-27T22:27:39.475Z,77.95
2024-02-27T22:30:10.720Z,78.25
2024-02-27T22:32:39.467Z,78.21
2024-02-27T22:35:09.099Z,78.20
2024-02-27T22:37:41.428Z,78.19
2024-02-27T22:40:10.987Z,78.22
2024-02-27T22:42:39.633Z,78.05
2024-02-27T22:45:09.253Z,78.00
2024-02-27T22:47:37.977Z,77.86
2024-02-27T22:50:07.318Z,77.78
2024-02-27T22:52:35.843Z,77.72
2024-02-27T22:55:04.585Z,77.84
2024-02-27T22:57:33.137Z,77.89
2024-02-27T23:00:01.999Z,78.00
2024-02-27T23:02:30.851Z,77.89
2024-02-27T23:04:59.239Z,77.81
2024-02-27T23:07:28.111Z,77.94
2024-02-27T23:09:56.973Z,77.89
2024-02-27T23:12:25.501Z,77.73
2024-02-27T23:14:54.184Z,77.83
2024-02-27T23:17:24.222Z,77.75
2024-02-27T23:19:52.996Z,77.64
2024-02-27T23:22:21.685Z,77.70
2024-02-27T23:24:52.002Z,77.94
2024-02-27T23:27:22.165Z,77.88
2024-02-27T23:29:51.113Z,78.05
2024-02-27T23:32:19.599Z,78.14
2024-02-27T23:34:48.072Z,78.38
2024-02-27T23:37:16.647Z,78.41
2024-02-27T23:39:46.426Z,78.53
2024-02-27T23:42:15.199Z,78.64
2024-02-27T23:44:43.772Z,78.89
2024-02-27T23:47:13.649Z,79.09
2024-02-27T23:49:43.773Z,79.27
2024-02-27T23:52:12.396Z,79.44
2024-02-27T23:54:44.704Z,79.55
2024-02-27T23:57:13.664Z,79.52
2024-02-27T23:59:42.313Z,79.53
